Terminal Aerodrome Forecast
Issued by NWS

Home | Current Version | Previous Version | Text Only | Print | Product List | Glossary On
Versions: 1 2 3 4 5 6 7 8 9 10 11 12 13 14 15 16 17 18 19 20 21 22 23 24 25 26 27 28
000
FTUS41 KPHI 031746
TAFMIV
TAF
KMIV 031746Z 0318/0418 15004KT P6SM -SHSN OVC045
     FM032100 15004KT 4SM -PL OVC025
     FM032200 15004KT 2SM -RAPL OVC010
     FM040000 15004KT 1SM RA BR OVC008 WS020/21040KT
     FM040200 21006KT 2SM RA BR OVC005 WS015/23055KT
     FM040800 24006KT 3SM -RA BR OVC003 WS020/25045KT
     FM041200 29004KT 2SM -RA BR OVC005=

USA.gov is the U.S. government's official web portal to all federal, state and local government web resources and services.